Time;durP1;ratioP1;P1;durP2;ratioP2;P2;SDS_P1;SDS_P2;PMS_P1;PMS_P2;Temp;Humidity;BMP_temperature;BMP_pressure;BME280_temperature;BME280_humidity;BME280_pressure;Samples;Min_cycle;Max_cycle;Signal;HPM_P1;HPM_P2
2021/06/26 00:00:45;;;;;;;16.50;14.35;;;;;;;;;;1435113;41;20441;-79
2021/06/26 00:01:47;;;;;;;16.67;14.45;;;;;;;;;;1434855;41;20444;-79
2021/06/26 00:02:49;;;;;;;16.42;14.15;;;;;;;;;;1430117;41;20438;-79
2021/06/26 00:03:50;;;;;;;16.92;14.00;;;;;;;;;;1433885;41;20737;-80
2021/06/26 00:04:52;;;;;;;15.48;13.88;;;;;;;;;;1430253;41;20884;-79
2021/06/26 00:05:56;;;;;;;15.38;13.65;;;;;;;;;;1434306;41;20511;-79
2021/06/26 00:06:58;;;;;;;17.88;14.70;;;;;;;;;;1438132;41;20423;-79
2021/06/26 00:08:00;;;;;;;18.15;14.48;;;;;;;;;;1439662;41;20425;-80
2021/06/26 00:09:02;;;;;;;18.33;14.57;;;;;;;;;;1437091;41;20894;-79
2021/06/26 00:10:05;;;;;;;15.90;14.20;;;;;;;;;;1433075;41;21186;-80
2021/06/26 00:11:07;;;;;;;17.88;14.90;;;;;;;;;;1437550;41;20576;-79
2021/06/26 00:12:09;;;;;;;16.48;14.40;;;;;;;;;;1436929;41;20435;-79
2021/06/26 00:13:10;;;;;;;17.50;14.48;;;;;;;;;;1429148;41;20888;-79
2021/06/26 00:14:12;;;;;;;18.13;13.80;;;;;;;;;;1434264;41;20413;-79
2021/06/26 00:15:14;;;;;;;16.27;14.57;;;;;;;;;;1433429;41;20481;-80
2021/06/26 00:16:15;;;;;;;18.30;14.82;;;;;;;;;;1430122;41;20782;-79
2021/06/26 00:17:17;;;;;;;18.55;14.88;;;;;;;;;;1430388;41;20430;-80
2021/06/26 00:18:19;;;;;;;17.05;14.45;;;;;;;;;;1430680;41;20491;-79
2021/06/26 00:19:21;;;;;;;21.03;15.73;;;;;;;;;;1434112;41;20810;-79
2021/06/26 00:20:22;;;;;;;17.75;14.85;;;;;;;;;;1435725;41;20471;-79
2021/06/26 00:21:24;;;;;;;19.92;15.48;;;;;;;;;;1437965;41;20427;-79
2021/06/26 00:22:26;;;;;;;16.88;14.85;;;;;;;;;;1437870;41;20442;-79
2021/06/26 00:23:27;;;;;;;17.05;14.85;;;;;;;;;;1438240;41;20430;-79
2021/06/26 00:24:49;;;;;;;17.30;14.55;;;;;;;;;;1438153;41;20769;-79
2021/06/26 00:25:51;;;;;;;18.40;13.80;;;;;;;;;;1442368;41;20453;-79
2021/06/26 00:26:52;;;;;;;17.08;14.63;;;;;;;;;;1442050;41;20847;-79
2021/06/26 00:27:54;;;;;;;19.60;14.65;;;;;;;;;;1437910;41;21237;-79
2021/06/26 00:28:56;;;;;;;15.30;13.68;;;;;;;;;;1438419;41;20794;-79
2021/06/26 00:29:58;;;;;;;19.92;14.68;;;;;;;;;;1438736;41;20508;-80
2021/06/26 00:30:59;;;;;;;16.70;14.20;;;;;;;;;;1438701;41;20892;-79
2021/06/26 00:32:01;;;;;;;17.23;14.80;;;;;;;;;;1430074;41;20449;-79
2021/06/26 00:33:03;;;;;;;19.65;15.25;;;;;;;;;;1429674;41;20410;-80
2021/06/26 00:34:05;;;;;;;18.88;15.02;;;;;;;;;;1433935;41;20428;-79
2021/06/26 00:35:07;;;;;;;20.15;15.70;;;;;;;;;;1433923;41;20437;-80
2021/06/26 00:36:09;;;;;;;20.92;15.90;;;;;;;;;;1436562;41;20487;-79
2021/06/26 00:37:10;;;;;;;18.88;14.90;;;;;;;;;;1437975;41;20438;-79
2021/06/26 00:38:12;;;;;;;19.70;15.93;;;;;;;;;;1438120;41;20475;-79
2021/06/26 00:39:13;;;;;;;23.55;17.08;;;;;;;;;;1438605;41;20441;-79
2021/06/26 00:40:15;;;;;;;21.83;16.38;;;;;;;;;;1437539;41;20422;-79
2021/06/26 00:41:17;;;;;;;22.55;16.75;;;;;;;;;;1438865;41;20422;-80
2021/06/26 00:42:18;;;;;;;21.70;16.85;;;;;;;;;;1433312;41;20476;-80
2021/06/26 00:43:20;;;;;;;18.55;16.45;;;;;;;;;;1430509;41;20841;-80
2021/06/26 00:44:27;;;;;;;22.05;17.08;;;;;;;;;;1434455;41;20798;-80
2021/06/26 00:45:28;;;;;;;21.55;16.88;;;;;;;;;;1437338;41;20415;-79
2021/06/26 00:46:30;;;;;;;22.25;17.50;;;;;;;;;;1438251;41;20427;-79
2021/06/26 00:47:32;;;;;;;22.83;18.48;;;;;;;;;;1438487;41;20478;-79
2021/06/26 00:48:34;;;;;;;24.77;17.90;;;;;;;;;;1438475;41;20539;-79
2021/06/26 00:49:36;;;;;;;23.83;17.95;;;;;;;;;;1439552;41;20791;-79
2021/06/26 00:50:37;;;;;;;25.90;18.38;;;;;;;;;;1436179;41;20447;-80
2021/06/26 00:51:39;;;;;;;26.35;17.95;;;;;;;;;;1435060;41;20462;-79
2021/06/26 00:52:41;;;;;;;23.27;18.40;;;;;;;;;;1431012;41;20509;-77
2021/06/26 00:53:43;;;;;;;24.03;18.30;;;;;;;;;;1437840;41;20465;-80
2021/06/26 00:54:46;;;;;;;24.33;17.88;;;;;;;;;;1437618;41;20481;-80
2021/06/26 00:55:53;;;;;;;23.13;17.75;;;;;;;;;;1438648;41;20421;-79
2021/06/26 00:56:56;;;;;;;22.60;17.58;;;;;;;;;;1439492;41;20481;-77
2021/06/26 00:57:59;;;;;;;26.02;18.20;;;;;;;;;;1439998;41;20416;-78
2021/06/26 00:59:00;;;;;;;24.00;18.15;;;;;;;;;;1441860;41;20427;-79
2021/06/26 01:00:06;;;;;;;23.63;17.93;;;;;;;;;;1438205;41;20429;-79
2021/06/26 01:01:09;;;;;;;23.75;17.08;;;;;;;;;;1435956;41;20542;-79
2021/06/26 01:02:10;;;;;;;21.42;16.45;;;;;;;;;;1435271;41;20425;-79
2021/06/26 01:03:12;;;;;;;25.00;17.88;;;;;;;;;;1431684;41;20755;-79
2021/06/26 01:04:14;;;;;;;22.38;17.25;;;;;;;;;;1431506;41;20495;-79
2021/06/26 01:05:16;;;;;;;22.40;17.50;;;;;;;;;;1430940;41;20488;-80
2021/06/26 01:06:18;;;;;;;25.35;17.77;;;;;;;;;;1427349;41;20482;-79
2021/06/26 01:07:19;;;;;;;26.95;18.35;;;;;;;;;;1431205;41;20527;-80
2021/06/26 01:08:23;;;;;;;22.98;16.98;;;;;;;;;;1430905;41;20960;-79
2021/06/26 01:09:25;;;;;;;24.95;17.48;;;;;;;;;;1431190;41;20454;-80
2021/06/26 01:10:28;;;;;;;23.63;17.30;;;;;;;;;;1433455;41;20429;-79
2021/06/26 01:11:30;;;;;;;20.65;17.20;;;;;;;;;;1434272;41;20566;-79
2021/06/26 01:12:32;;;;;;;26.45;17.65;;;;;;;;;;1430922;41;20885;-79
2021/06/26 01:13:35;;;;;;;23.45;17.73;;;;;;;;;;1430403;41;20457;-79
2021/06/26 01:14:36;;;;;;;22.67;17.52;;;;;;;;;;1431550;41;20588;-79
2021/06/26 01:15:38;;;;;;;25.63;18.42;;;;;;;;;;1434844;41;20417;-79
2021/06/26 01:16:40;;;;;;;24.42;18.48;;;;;;;;;;1435319;41;20436;-78
2021/06/26 01:17:41;;;;;;;27.50;18.63;;;;;;;;;;1434557;41;20428;-79
2021/06/26 01:18:44;;;;;;;30.13;19.58;;;;;;;;;;1430913;41;20863;-79
2021/06/26 01:19:46;;;;;;;23.40;17.95;;;;;;;;;;1434213;41;20480;-79
2021/06/26 01:20:47;;;;;;;25.23;18.58;;;;;;;;;;1430717;41;20419;-79
2021/06/26 01:21:54;;;;;;;25.38;18.20;;;;;;;;;;1430027;41;21192;-79
2021/06/26 01:22:58;;;;;;;24.02;17.83;;;;;;;;;;1434879;41;20436;-79
2021/06/26 01:24:00;;;;;;;26.38;17.83;;;;;;;;;;1441121;41;20511;-79
2021/06/26 01:25:03;;;;;;;27.17;17.92;;;;;;;;;;1437806;41;20772;-78
2021/06/26 01:26:05;;;;;;;26.20;18.05;;;;;;;;;;1434131;41;20525;-79
2021/06/26 01:27:07;;;;;;;29.17;18.73;;;;;;;;;;1434058;41;20458;-78
2021/06/26 01:28:08;;;;;;;27.20;18.50;;;;;;;;;;1433271;41;20438;-79
2021/06/26 01:29:11;;;;;;;28.13;18.20;;;;;;;;;;1427552;41;20475;-79
2021/06/26 01:30:15;;;;;;;28.60;18.83;;;;;;;;;;1434958;41;20534;-79
2021/06/26 01:31:17;;;;;;;29.67;18.35;;;;;;;;;;1438808;41;20809;-79
2021/06/26 01:32:19;;;;;;;32.58;19.92;;;;;;;;;;1438389;41;20845;-79
2021/06/26 01:33:21;;;;;;;26.30;18.40;;;;;;;;;;1434311;41;20736;-79
2021/06/26 01:34:23;;;;;;;26.70;18.50;;;;;;;;;;1426487;41;20476;-79
2021/06/26 01:35:26;;;;;;;29.42;19.00;;;;;;;;;;1431777;41;20433;-80
2021/06/26 01:36:27;;;;;;;30.55;19.15;;;;;;;;;;1437781;41;20500;-80
2021/06/26 01:37:29;;;;;;;34.80;20.05;;;;;;;;;;1438418;41;20817;-79
2021/06/26 01:38:30;;;;;;;35.40;21.58;;;;;;;;;;1438469;41;20471;-79
2021/06/26 01:39:32;;;;;;;31.92;20.15;;;;;;;;;;1434080;41;20789;-79
2021/06/26 01:40:34;;;;;;;32.55;19.85;;;;;;;;;;1433728;41;20426;-79
2021/06/26 01:41:36;;;;;;;32.35;20.02;;;;;;;;;;1437930;41;21204;-79
2021/06/26 01:42:38;;;;;;;33.40;20.52;;;;;;;;;;1431601;41;20442;-79
2021/06/26 01:43:39;;;;;;;38.95;21.67;;;;;;;;;;1428468;41;20466;-79
2021/06/26 01:44:41;;;;;;;31.58;19.65;;;;;;;;;;1438015;41;20426;-79
2021/06/26 01:45:43;;;;;;;34.33;20.83;;;;;;;;;;1434205;41;20485;-78
2021/06/26 01:46:44;;;;;;;39.58;21.73;;;;;;;;;;1433521;41;20451;-78
2021/06/26 01:47:51;;;;;;;40.22;22.42;;;;;;;;;;1433041;41;20699;-79
2021/06/26 01:48:53;;;;;;;39.75;22.55;;;;;;;;;;1434827;41;20421;-79
2021/06/26 01:49:55;;;;;;;39.83;22.20;;;;;;;;;;1438798;41;20423;-79
2021/06/26 01:50:57;;;;;;;41.92;22.08;;;;;;;;;;1434075;41;20801;-79
2021/06/26 01:51:58;;;;;;;40.28;22.23;;;;;;;;;;1430412;41;20539;-79
2021/06/26 01:53:00;;;;;;;37.53;21.33;;;;;;;;;;1430503;41;20434;-79
2021/06/26 01:54:04;;;;;;;35.67;21.90;;;;;;;;;;1430521;41;20492;-79
2021/06/26 01:55:06;;;;;;;38.05;22.40;;;;;;;;;;1434450;41;20462;-79
2021/06/26 01:56:08;;;;;;;39.67;23.10;;;;;;;;;;1438253;41;20443;-79
2021/06/26 01:57:10;;;;;;;39.72;22.40;;;;;;;;;;1437350;41;20483;-79
2021/06/26 01:58:12;;;;;;;38.13;22.35;;;;;;;;;;1434995;41;20438;-79
2021/06/26 01:59:13;;;;;;;38.55;21.75;;;;;;;;;;1430072;41;20442;-79
2021/06/26 02:00:17;;;;;;;36.00;21.33;;;;;;;;;;1435764;41;20495;-79
2021/06/26 02:01:18;;;;;;;38.10;22.85;;;;;;;;;;1442218;41;20420;-80
2021/06/26 02:02:20;;;;;;;41.85;23.27;;;;;;;;;;1439619;41;20434;-79
2021/06/26 02:03:21;;;;;;;38.28;22.67;;;;;;;;;;1438273;41;20656;-79
2021/06/26 02:04:24;;;;;;;37.60;21.92;;;;;;;;;;1442953;41;20435;-80
2021/06/26 02:05:26;;;;;;;36.03;21.27;;;;;;;;;;1437314;41;20421;-79
2021/06/26 02:06:28;;;;;;;40.88;21.98;;;;;;;;;;1435432;41;21027;-79
2021/06/26 02:07:30;;;;;;;43.33;22.20;;;;;;;;;;1435376;41;20847;-79
2021/06/26 02:08:32;;;;;;;41.80;22.27;;;;;;;;;;1440566;41;20452;-79
2021/06/26 02:09:33;;;;;;;38.38;23.20;;;;;;;;;;1438701;41;20437;-79
2021/06/26 02:10:35;;;;;;;35.40;21.60;;;;;;;;;;1435339;41;20464;-79
2021/06/26 02:11:37;;;;;;;37.40;23.08;;;;;;;;;;1434785;41;20454;-79
2021/06/26 02:12:39;;;;;;;46.63;22.52;;;;;;;;;;1434894;41;20703;-79
2021/06/26 02:13:41;;;;;;;34.88;21.77;;;;;;;;;;1438963;41;20920;-79
2021/06/26 02:14:43;;;;;;;41.15;22.85;;;;;;;;;;1439644;41;20509;-79
2021/06/26 02:15:44;;;;;;;37.63;21.73;;;;;;;;;;1438759;41;20488;-78
2021/06/26 02:16:46;;;;;;;38.33;23.58;;;;;;;;;;1438396;41;20434;-78
2021/06/26 02:17:48;;;;;;;40.92;23.40;;;;;;;;;;1438812;41;20423;-78
2021/06/26 02:18:50;;;;;;;36.40;22.13;;;;;;;;;;1434117;41;20827;-78
2021/06/26 02:19:51;;;;;;;41.25;22.88;;;;;;;;;;1433954;41;21057;-79
2021/06/26 02:20:53;;;;;;;36.45;23.02;;;;;;;;;;1434313;41;20496;-78
2021/06/26 02:21:55;;;;;;;39.42;23.05;;;;;;;;;;1433750;41;20449;-78
2021/06/26 02:22:56;;;;;;;38.05;22.95;;;;;;;;;;1433441;41;21245;-78
2021/06/26 02:23:58;;;;;;;41.90;23.88;;;;;;;;;;1433977;41;20823;-78
2021/06/26 02:25:04;;;;;;;38.70;23.42;;;;;;;;;;1432381;41;20467;-78
2021/06/26 02:26:06;;;;;;;39.50;24.15;;;;;;;;;;1433996;41;20788;-78
2021/06/26 02:27:08;;;;;;;41.95;23.90;;;;;;;;;;1433751;41;20437;-78
2021/06/26 02:28:10;;;;;;;42.40;24.05;;;;;;;;;;1421902;41;20450;-79
2021/06/26 02:29:11;;;;;;;38.58;23.73;;;;;;;;;;1418623;41;20799;-79
2021/06/26 02:30:13;;;;;;;40.00;23.45;;;;;;;;;;1429704;41;20500;-79
2021/06/26 02:31:15;;;;;;;41.25;23.10;;;;;;;;;;1426172;41;20537;-80
2021/06/26 02:32:16;;;;;;;37.00;23.15;;;;;;;;;;1430038;41;20415;-79
2021/06/26 02:33:18;;;;;;;38.47;23.77;;;;;;;;;;1434339;41;20436;-79
2021/06/26 02:34:20;;;;;;;40.00;24.45;;;;;;;;;;1434395;41;20429;-79
2021/06/26 02:35:21;;;;;;;43.30;25.25;;;;;;;;;;1434005;41;20421;-79
2021/06/26 02:36:23;;;;;;;41.38;24.35;;;;;;;;;;1425310;41;20533;-79
2021/06/26 02:37:25;;;;;;;44.03;24.92;;;;;;;;;;1422784;41;20852;-79
2021/06/26 02:38:27;;;;;;;43.88;24.27;;;;;;;;;;1430122;41;20430;-78
2021/06/26 02:39:28;;;;;;;46.58;24.05;;;;;;;;;;1429969;41;20905;-78
2021/06/26 02:40:33;;;;;;;44.35;25.23;;;;;;;;;;1429420;41;20777;-78
2021/06/26 02:41:36;;;;;;;41.60;23.83;;;;;;;;;;1430039;41;20465;-80
2021/06/26 02:42:37;;;;;;;45.60;24.77;;;;;;;;;;1436468;41;20553;-79
2021/06/26 02:43:39;;;;;;;44.75;25.75;;;;;;;;;;1434087;41;20452;-79
2021/06/26 02:44:40;;;;;;;40.83;23.75;;;;;;;;;;1435312;41;20448;-79
2021/06/26 02:45:42;;;;;;;48.92;25.10;;;;;;;;;;1438045;41;20453;-79
2021/06/26 02:46:44;;;;;;;48.13;25.25;;;;;;;;;;1433484;41;21188;-79
2021/06/26 02:47:45;;;;;;;45.75;25.17;;;;;;;;;;1429726;41;20427;-79
2021/06/26 02:48:47;;;;;;;42.97;23.73;;;;;;;;;;1426188;41;20431;-79
2021/06/26 02:49:50;;;;;;;44.17;25.23;;;;;;;;;;1427809;41;20450;-79
2021/06/26 02:50:51;;;;;;;42.85;24.90;;;;;;;;;;1433871;41;20525;-79
2021/06/26 02:51:53;;;;;;;52.70;26.42;;;;;;;;;;1431782;41;20456;-79
2021/06/26 02:52:54;;;;;;;43.88;24.65;;;;;;;;;;1429698;41;20426;-79
2021/06/26 02:53:56;;;;;;;37.78;24.80;;;;;;;;;;1434213;41;20439;-79
2021/06/26 02:54:58;;;;;;;42.97;25.05;;;;;;;;;;1438400;41;20548;-79
2021/06/26 02:56:00;;;;;;;44.55;26.13;;;;;;;;;;1437862;41;20437;-79
2021/06/26 02:57:02;;;;;;;46.72;25.42;;;;;;;;;;1437619;41;20419;-79
2021/06/26 02:58:04;;;;;;;44.63;25.08;;;;;;;;;;1438113;41;20431;-78
2021/06/26 02:59:06;;;;;;;45.90;26.27;;;;;;;;;;1433473;41;20508;-79
2021/06/26 03:00:09;;;;;;;50.97;26.25;;;;;;;;;;1433789;41;20851;-79
2021/06/26 03:01:10;;;;;;;48.00;26.00;;;;;;;;;;1438321;41;20463;-79
2021/06/26 03:02:12;;;;;;;50.35;27.35;;;;;;;;;;1437851;41;20682;-80
2021/06/26 03:03:14;;;;;;;49.17;26.98;;;;;;;;;;1437610;41;20831;-79
2021/06/26 03:04:15;;;;;;;49.88;26.20;;;;;;;;;;1430322;41;20438;-78
2021/06/26 03:05:17;;;;;;;53.47;28.05;;;;;;;;;;1426197;41;20766;-80
2021/06/26 03:06:19;;;;;;;51.05;26.17;;;;;;;;;;1430321;41;20545;-80
2021/06/26 03:07:20;;;;;;;48.33;26.75;;;;;;;;;;1438008;41;20438;-80
2021/06/26 03:08:22;;;;;;;48.65;27.90;;;;;;;;;;1438350;41;20932;-79
2021/06/26 03:09:24;;;;;;;44.03;25.13;;;;;;;;;;1437731;41;20423;-79
2021/06/26 03:10:25;;;;;;;49.13;26.88;;;;;;;;;;1433901;41;20452;-79
2021/06/26 03:11:27;;;;;;;47.50;26.55;;;;;;;;;;1428859;41;20454;-82
2021/06/26 03:12:28;;;;;;;49.58;27.15;;;;;;;;;;1433917;41;20413;-80
2021/06/26 03:13:30;;;;;;;42.67;25.67;;;;;;;;;;1437023;41;20487;-79
2021/06/26 03:14:32;;;;;;;46.72;26.45;;;;;;;;;;1437711;41;20430;-80
2021/06/26 03:15:33;;;;;;;42.85;26.35;;;;;;;;;;1436732;41;20482;-80
2021/06/26 03:16:35;;;;;;;46.70;27.33;;;;;;;;;;1434142;41;20512;-79
2021/06/26 03:17:37;;;;;;;45.38;26.75;;;;;;;;;;1438497;41;20725;-79
2021/06/26 03:18:43;;;;;;;39.70;24.98;;;;;;;;;;1442378;41;21218;-80
2021/06/26 03:19:45;;;;;;;45.78;27.00;;;;;;;;;;1438837;41;20426;-79
2021/06/26 03:20:46;;;;;;;37.13;24.27;;;;;;;;;;1438289;41;20492;-79
2021/06/26 03:21:48;;;;;;;44.53;26.45;;;;;;;;;;1438570;41;20524;-79
2021/06/26 03:22:49;;;;;;;41.75;25.25;;;;;;;;;;1437784;41;21087;-79
2021/06/26 03:23:51;;;;;;;44.78;25.02;;;;;;;;;;1438584;41;20569;-79
2021/06/26 03:24:52;;;;;;;41.53;25.98;;;;;;;;;;1434003;41;20421;-79
2021/06/26 03:25:54;;;;;;;45.40;26.25;;;;;;;;;;1434033;41;21073;-79
2021/06/26 03:26:56;;;;;;;42.55;25.77;;;;;;;;;;1438124;41;20910;-79
2021/06/26 03:27:58;;;;;;;41.10;25.58;;;;;;;;;;1434179;41;21612;-79
2021/06/26 03:29:00;;;;;;;47.03;27.58;;;;;;;;;;1434174;41;20473;-79
2021/06/26 03:30:03;;;;;;;42.72;26.05;;;;;;;;;;1441530;41;20434;-80
2021/06/26 03:31:05;;;;;;;43.50;26.70;;;;;;;;;;1443371;41;20501;-79
2021/06/26 03:32:07;;;;;;;46.93;26.23;;;;;;;;;;1443115;41;20569;-79
2021/06/26 03:33:09;;;;;;;39.80;24.63;;;;;;;;;;1436247;41;20532;-79
2021/06/26 03:34:10;;;;;;;33.70;23.55;;;;;;;;;;1430735;41;20466;-79
2021/06/26 03:35:13;;;;;;;38.00;23.88;;;;;;;;;;1432943;41;20454;-80
2021/06/26 03:36:15;;;;;;;37.03;24.45;;;;;;;;;;1436124;41;20517;-79
2021/06/26 03:37:16;;;;;;;41.15;25.17;;;;;;;;;;1436029;41;20462;-80
2021/06/26 03:38:18;;;;;;;38.60;23.33;;;;;;;;;;1431758;41;20440;-80
2021/06/26 03:39:20;;;;;;;39.53;24.53;;;;;;;;;;1429560;41;20828;-79
2021/06/26 03:40:21;;;;;;;36.13;24.02;;;;;;;;;;1437699;41;20438;-80
2021/06/26 03:41:26;;;;;;;35.15;23.55;;;;;;;;;;1438645;41;20446;-79
2021/06/26 03:42:28;;;;;;;35.97;23.08;;;;;;;;;;1439216;41;20467;-79
2021/06/26 03:43:30;;;;;;;36.58;23.40;;;;;;;;;;1434681;41;20444;-80
2021/06/26 03:44:31;;;;;;;36.40;23.30;;;;;;;;;;1430106;41;20474;-79
2021/06/26 03:45:33;;;;;;;34.80;22.48;;;;;;;;;;1430019;41;20502;-79
2021/06/26 03:46:36;;;;;;;41.50;24.73;;;;;;;;;;1430163;41;21172;-80
2021/06/26 03:47:38;;;;;;;35.30;23.75;;;;;;;;;;1430341;41;20441;-80
2021/06/26 03:48:40;;;;;;;37.75;23.05;;;;;;;;;;1432021;41;20426;-79
2021/06/26 03:49:41;;;;;;;38.78;22.55;;;;;;;;;;1439617;41;20439;-79
2021/06/26 03:50:43;;;;;;;34.80;23.30;;;;;;;;;;1440232;41;20435;-79
2021/06/26 03:51:45;;;;;;;33.63;23.33;;;;;;;;;;1440622;41;20685;-79
2021/06/26 03:52:46;;;;;;;33.92;23.10;;;;;;;;;;1443199;41;20421;-79
2021/06/26 03:53:49;;;;;;;34.35;22.48;;;;;;;;;;1441396;41;20434;-79
2021/06/26 03:54:51;;;;;;;37.75;23.55;;;;;;;;;;1437200;41;20437;-78
2021/06/26 03:55:52;;;;;;;37.47;23.00;;;;;;;;;;1434348;41;20435;-79
2021/06/26 03:56:55;;;;;;;37.00;21.90;;;;;;;;;;1433469;41;20451;-78
2021/06/26 03:57:56;;;;;;;36.17;21.63;;;;;;;;;;1443253;41;20431;-78
2021/06/26 03:59:00;;;;;;;36.08;22.50;;;;;;;;;;1443180;41;20426;-79
2021/06/26 04:00:03;;;;;;;37.50;22.65;;;;;;;;;;1439352;41;20437;-78
2021/06/26 04:01:05;;;;;;;33.45;21.27;;;;;;;;;;1437144;41;20429;-79
2021/06/26 04:02:07;;;;;;;39.38;22.13;;;;;;;;;;1432341;41;20422;-79
2021/06/26 04:03:08;;;;;;;35.47;21.85;;;;;;;;;;1428263;41;20819;-79
2021/06/26 04:04:10;;;;;;;39.90;22.33;;;;;;;;;;1427788;41;20893;-79
2021/06/26 04:05:12;;;;;;;39.38;23.50;;;;;;;;;;1431457;41;20438;-79
2021/06/26 04:06:14;;;;;;;37.78;22.27;;;;;;;;;;1436042;41;20424;-79
2021/06/26 04:07:16;;;;;;;35.05;22.35;;;;;;;;;;1439270;41;20427;-79
2021/06/26 04:08:18;;;;;;;37.15;22.60;;;;;;;;;;1435126;41;20424;-79
2021/06/26 04:09:19;;;;;;;40.33;23.30;;;;;;;;;;1435250;41;20432;-79
2021/06/26 04:10:21;;;;;;;37.25;23.10;;;;;;;;;;1435290;41;20466;-79
2021/06/26 04:11:22;;;;;;;44.33;24.02;;;;;;;;;;1434642;41;20459;-78
2021/06/26 04:12:24;;;;;;;42.90;23.57;;;;;;;;;;1431059;41;20536;-78
2021/06/26 04:13:26;;;;;;;43.10;23.05;;;;;;;;;;1426841;41;20487;-79
2021/06/26 04:14:27;;;;;;;40.65;23.52;;;;;;;;;;1434549;41;20503;-78
2021/06/26 04:15:29;;;;;;;45.33;23.75;;;;;;;;;;1438802;41;20461;-78
2021/06/26 04:16:31;;;;;;;40.65;22.10;;;;;;;;;;1431159;41;20427;-78
2021/06/26 04:17:33;;;;;;;41.50;23.23;;;;;;;;;;1434154;41;20425;-79
2021/06/26 04:18:34;;;;;;;42.97;22.92;;;;;;;;;;1435001;41;20483;-79
2021/06/26 04:19:36;;;;;;;44.53;23.25;;;;;;;;;;1434975;41;21201;-79
2021/06/26 04:20:38;;;;;;;42.65;23.17;;;;;;;;;;1435186;41;20428;-78
2021/06/26 04:21:40;;;;;;;35.97;22.08;;;;;;;;;;1435169;41;20468;-79
2021/06/26 04:22:44;;;;;;;35.60;22.67;;;;;;;;;;1435002;41;20900;-79
2021/06/26 04:23:46;;;;;;;38.45;22.77;;;;;;;;;;1430706;41;20445;-79
2021/06/26 04:24:48;;;;;;;42.55;23.40;;;;;;;;;;1431410;41;20442;-79
2021/06/26 04:25:51;;;;;;;39.83;24.30;;;;;;;;;;1435082;41;20870;-78
2021/06/26 04:26:52;;;;;;;37.80;24.17;;;;;;;;;;1435274;41;20816;-78
2021/06/26 04:28:03;;;;;;;40.63;24.10;;;;;;;;;;1434529;41;20853;-79
2021/06/26 04:29:05;;;;;;;40.92;24.92;;;;;;;;;;1434050;41;20452;-79
2021/06/26 04:30:07;;;;;;;41.35;23.60;;;;;;;;;;1433712;41;20810;-79
2021/06/26 04:31:09;;;;;;;38.58;22.67;;;;;;;;;;1435640;41;20432;-78
2021/06/26 04:32:11;;;;;;;39.47;23.40;;;;;;;;;;1435878;41;20424;-79
2021/06/26 04:33:13;;;;;;;40.60;24.10;;;;;;;;;;1435532;41;20436;-78
2021/06/26 04:34:15;;;;;;;43.10;24.98;;;;;;;;;;1435607;41;20807;-78
2021/06/26 04:35:20;;;;;;;45.03;26.38;;;;;;;;;;1435320;41;20563;-79
2021/06/26 04:36:21;;;;;;;41.88;25.38;;;;;;;;;;1434826;41;20424;-80
2021/06/26 04:37:23;;;;;;;42.58;25.17;;;;;;;;;;1434728;41;20413;-79
2021/06/26 04:38:25;;;;;;;43.72;24.95;;;;;;;;;;1435265;41;20513;-79
2021/06/26 04:39:26;;;;;;;44.03;25.35;;;;;;;;;;1435029;41;20464;-79
2021/06/26 04:40:28;;;;;;;45.65;26.85;;;;;;;;;;1434811;41;20436;-79
2021/06/26 04:41:30;;;;;;;44.13;25.60;;;;;;;;;;1430367;41;20689;-79
2021/06/26 04:42:32;;;;;;;47.53;26.20;;;;;;;;;;1430213;41;20465;-79
2021/06/26 04:43:34;;;;;;;44.57;25.37;;;;;;;;;;1434370;41;20511;-79
2021/06/26 04:44:36;;;;;;;48.25;26.45;;;;;;;;;;1434834;41;20456;-79
2021/06/26 04:45:37;;;;;;;44.25;25.77;;;;;;;;;;1434455;41;20452;-79
2021/06/26 04:46:40;;;;;;;46.25;26.70;;;;;;;;;;1435142;41;20440;-79
2021/06/26 04:47:43;;;;;;;43.97;26.35;;;;;;;;;;1434742;41;20947;-79
2021/06/26 04:48:45;;;;;;;50.38;28.10;;;;;;;;;;1434765;41;20874;-79
2021/06/26 04:49:46;;;;;;;50.70;27.23;;;;;;;;;;1430473;41;20446;-79
2021/06/26 04:50:48;;;;;;;47.97;28.65;;;;;;;;;;1427323;41;20455;-78
2021/06/26 04:51:50;;;;;;;51.90;27.90;;;;;;;;;;1433960;41;20710;-79
2021/06/26 04:52:51;;;;;;;54.20;28.38;;;;;;;;;;1434674;41;20468;-79
2021/06/26 04:53:53;;;;;;;46.77;27.37;;;;;;;;;;1430302;41;20564;-79
2021/06/26 04:54:55;;;;;;;55.55;28.88;;;;;;;;;;1434069;41;20412;-79
2021/06/26 04:55:56;;;;;;;47.97;27.60;;;;;;;;;;1435325;41;20428;-79
2021/06/26 04:56:58;;;;;;;53.55;29.73;;;;;;;;;;1435307;41;20799;-79
2021/06/26 04:58:00;;;;;;;54.88;29.05;;;;;;;;;;1434250;41;20445;-79
2021/06/26 04:59:02;;;;;;;55.35;30.23;;;;;;;;;;1429821;41;21093;-79
2021/06/26 05:00:06;;;;;;;52.45;30.52;;;;;;;;;;1430111;41;20535;-79
2021/06/26 05:01:07;;;;;;;55.75;31.48;;;;;;;;;;1434945;41;20444;-78
2021/06/26 05:02:09;;;;;;;56.35;30.77;;;;;;;;;;1435019;41;20476;-78
2021/06/26 05:03:10;;;;;;;53.42;31.63;;;;;;;;;;1437407;41;20527;-78
2021/06/26 05:04:12;;;;;;;57.13;30.60;;;;;;;;;;1434047;41;20911;-80
2021/06/26 05:05:14;;;;;;;62.65;32.47;;;;;;;;;;1434317;41;20436;-79
2021/06/26 05:06:16;;;;;;;53.90;30.52;;;;;;;;;;1434129;41;20439;-79
2021/06/26 05:07:18;;;;;;;54.45;31.92;;;;;;;;;;1434388;41;20437;-81
2021/06/26 05:08:20;;;;;;;54.78;30.55;;;;;;;;;;1437816;41;20442;-79
2021/06/26 05:09:22;;;;;;;54.92;32.50;;;;;;;;;;1438731;41;20463;-79
2021/06/26 05:10:24;;;;;;;53.40;31.35;;;;;;;;;;1438255;41;20930;-79
2021/06/26 05:11:25;;;;;;;54.17;31.55;;;;;;;;;;1438188;41;20437;-79
2021/06/26 05:12:27;;;;;;;58.78;32.25;;;;;;;;;;1438232;41;20768;-79
2021/06/26 05:13:29;;;;;;;51.05;30.95;;;;;;;;;;1431307;41;20427;-79
2021/06/26 05:14:31;;;;;;;54.42;31.30;;;;;;;;;;1431129;41;20450;-80
2021/06/26 05:15:33;;;;;;;56.38;32.10;;;;;;;;;;1434927;41;20433;-79
2021/06/26 05:16:34;;;;;;;48.67;29.90;;;;;;;;;;1434870;41;20453;-79
2021/06/26 05:17:36;;;;;;;51.90;31.63;;;;;;;;;;1431232;41;20446;-79
2021/06/26 05:18:38;;;;;;;53.20;32.33;;;;;;;;;;1434766;41;20876;-79
2021/06/26 05:19:40;;;;;;;57.27;33.33;;;;;;;;;;1434101;41;20644;-80
2021/06/26 05:20:42;;;;;;;54.35;33.17;;;;;;;;;;1434180;41;21153;-80
2021/06/26 05:21:43;;;;;;;56.13;32.88;;;;;;;;;;1433944;41;20529;-80
2021/06/26 05:22:45;;;;;;;57.95;33.65;;;;;;;;;;1433731;41;20460;-80
2021/06/26 05:23:47;;;;;;;56.25;32.65;;;;;;;;;;1434296;41;20453;-79
2021/06/26 05:24:49;;;;;;;61.58;33.03;;;;;;;;;;1439046;41;20435;-79
2021/06/26 05:25:51;;;;;;;56.85;33.35;;;;;;;;;;1431073;41;20582;-80
2021/06/26 05:26:52;;;;;;;64.32;35.17;;;;;;;;;;1431616;41;20552;-79
2021/06/26 05:27:54;;;;;;;64.45;35.95;;;;;;;;;;1437652;41;20476;-79
2021/06/26 05:28:56;;;;;;;63.38;35.33;;;;;;;;;;1431123;41;20419;-79
2021/06/26 05:29:57;;;;;;;56.47;34.72;;;;;;;;;;1427279;41;20448;-79
2021/06/26 05:30:59;;;;;;;58.95;34.35;;;;;;;;;;1430819;41;20841;-79
2021/06/26 05:32:00;;;;;;;59.65;35.22;;;;;;;;;;1433985;41;20558;-79
2021/06/26 05:33:03;;;;;;;59.15;35.28;;;;;;;;;;1438777;41;20419;-79
2021/06/26 05:34:05;;;;;;;52.53;33.83;;;;;;;;;;1438309;41;20500;-79
2021/06/26 05:35:07;;;;;;;56.53;35.15;;;;;;;;;;1433835;41;20469;-79
2021/06/26 05:36:08;;;;;;;61.60;34.85;;;;;;;;;;1434378;41;20488;-79
2021/06/26 05:37:10;;;;;;;59.58;35.95;;;;;;;;;;1434153;41;20461;-79
2021/06/26 05:38:12;;;;;;;60.55;35.67;;;;;;;;;;1434002;41;21055;-79
2021/06/26 05:39:14;;;;;;;56.03;34.45;;;;;;;;;;1434492;41;20468;-79
2021/06/26 05:40:15;;;;;;;59.38;36.17;;;;;;;;;;1434262;41;20507;-78
2021/06/26 05:41:17;;;;;;;59.13;35.33;;;;;;;;;;1433658;41;20819;-79
2021/06/26 05:42:18;;;;;;;60.35;36.67;;;;;;;;;;1438491;41;20772;-80
2021/06/26 05:43:20;;;;;;;61.40;36.05;;;;;;;;;;1434010;41;20421;-80
2021/06/26 05:44:22;;;;;;;60.78;36.65;;;;;;;;;;1434068;41;20493;-80
2021/06/26 05:45:23;;;;;;;62.50;37.30;;;;;;;;;;1438429;41;20456;-78
2021/06/26 05:46:25;;;;;;;58.30;35.97;;;;;;;;;;1433862;41;20892;-79
2021/06/26 05:47:27;;;;;;;64.25;36.15;;;;;;;;;;1434372;41;20474;-79
2021/06/26 05:48:29;;;;;;;59.33;36.70;;;;;;;;;;1431108;41;20438;-79
2021/06/26 05:49:30;;;;;;;60.90;37.38;;;;;;;;;;1435260;41;20440;-79
2021/06/26 05:50:32;;;;;;;65.00;39.10;;;;;;;;;;1426736;41;20847;-79
2021/06/26 05:51:35;;;;;;;60.35;36.92;;;;;;;;;;1430461;41;20442;-79
2021/06/26 05:52:47;;;;;;;62.45;38.33;;;;;;;;;;1437979;41;20923;-79
2021/06/26 05:53:49;;;;;;;63.58;39.38;;;;;;;;;;1438450;41;20445;-79
2021/06/26 05:54:51;;;;;;;64.93;39.35;;;;;;;;;;1438568;41;20504;-78
2021/06/26 05:56:01;;;;;;;63.20;38.72;;;;;;;;;;1430267;41;20484;-79
2021/06/26 05:57:03;;;;;;;65.45;40.58;;;;;;;;;;1430249;41;20430;-78
2021/06/26 05:58:05;;;;;;;70.45;40.45;;;;;;;;;;1432221;41;20863;-79
2021/06/26 05:59:07;;;;;;;70.70;41.53;;;;;;;;;;1429872;41;20433;-79
2021/06/26 06:00:09;;;;;;;66.68;39.92;;;;;;;;;;1437211;41;20503;-78
2021/06/26 06:01:11;;;;;;;66.90;41.63;;;;;;;;;;1433824;41;20423;-79